createdAt,value
2019-05-23T00:00:36.261Z,5.1
2019-05-23T00:01:27.134Z,5.1
2019-05-23T00:02:18.028Z,5.1
2019-05-23T00:03:08.913Z,5.1
2019-05-23T00:03:59.788Z,5.1
2019-05-23T00:04:50.691Z,5.1
2019-05-23T00:05:41.562Z,5
2019-05-23T00:06:32.447Z,4.9
2019-05-23T00:07:23.316Z,4.9
2019-05-23T00:08:14.188Z,4.9
2019-05-23T00:09:05.063Z,4.9
2019-05-23T00:09:56.130Z,4.8
2019-05-23T00:10:47.001Z,4.7
2019-05-23T00:11:39.995Z,4.7
2019-05-23T00:12:31.173Z,4.6
2019-05-23T00:13:22.049Z,4.6
2019-05-23T00:14:12.926Z,4.4
2019-05-23T00:15:03.830Z,4.4
2019-05-23T00:15:54.759Z,4.4
2019-05-23T00:16:45.628Z,4.3
2019-05-23T00:17:36.513Z,4.3
2019-05-23T00:18:27.382Z,4.2
2019-05-23T00:19:18.281Z,4.2
2019-05-23T00:20:09.200Z,4.2
2019-05-23T00:21:00.078Z,4.1
2019-05-23T00:21:50.940Z,4.1
2019-05-23T00:22:41.808Z,4.1
2019-05-23T00:23:32.686Z,4.1
2019-05-23T00:24:23.560Z,4.1
2019-05-23T00:25:14.460Z,4.1
2019-05-23T00:26:05.328Z,4.1
2019-05-23T00:26:56.203Z,4.1
2019-05-23T00:27:47.072Z,4.1
2019-05-23T00:28:37.952Z,4
2019-05-23T00:29:28.827Z,4
2019-05-23T00:30:19.721Z,4
2019-05-23T00:31:10.591Z,4
2019-05-23T00:32:01.466Z,3.9
2019-05-23T00:32:52.346Z,3.9
2019-05-23T00:33:43.218Z,3.9
2019-05-23T00:34:34.094Z,3.8
2019-05-23T00:35:24.992Z,3.8
2019-05-23T00:36:15.868Z,3.8
2019-05-23T00:37:06.739Z,3.8
2019-05-23T00:37:57.610Z,3.9
2019-05-23T00:38:48.489Z,3.9
2019-05-23T00:39:39.360Z,3.8
2019-05-23T00:40:30.255Z,3.7
2019-05-23T00:41:21.125Z,3.7
2019-05-23T00:42:12.338Z,3.7
2019-05-23T00:43:03.210Z,3.6
2019-05-23T00:43:54.086Z,3.6
2019-05-23T00:44:44.962Z,3.6
2019-05-23T00:45:35.875Z,3.7
2019-05-23T00:46:26.742Z,3.7
2019-05-23T00:47:17.608Z,3.6
2019-05-23T00:48:08.474Z,3.6
2019-05-23T00:48:59.347Z,3.5
2019-05-23T00:49:50.214Z,3.6
2019-05-23T00:50:41.107Z,3.6
2019-05-23T00:51:31.980Z,3.6
2019-05-23T00:52:22.851Z,3.7
2019-05-23T00:53:13.719Z,3.6
2019-05-23T00:54:04.592Z,3.7
2019-05-23T00:54:55.472Z,3.7
2019-05-23T00:55:46.383Z,3.7
2019-05-23T00:56:37.268Z,3.7
2019-05-23T00:57:28.147Z,3.7
2019-05-23T00:58:19.028Z,3.7
2019-05-23T00:59:24.358Z,3.6
2019-05-23T01:00:05.710Z,3.7
2019-05-23T01:00:56.602Z,3.7
2019-05-23T01:01:47.473Z,3.6
2019-05-23T01:02:38.350Z,3.6
2019-05-23T01:03:29.479Z,3.7
2019-05-23T01:04:20.499Z,3.7
2019-05-23T01:05:11.430Z,3.8
2019-05-23T01:06:02.331Z,3.9
2019-05-23T01:06:53.237Z,4
2019-05-23T01:07:44.107Z,4.1
2019-05-23T01:08:34.989Z,4.3
2019-05-23T01:09:25.868Z,4.5
2019-05-23T01:10:16.739Z,4.5
2019-05-23T01:11:07.640Z,4.6
2019-05-23T01:11:58.581Z,4.6
2019-05-23T01:12:49.489Z,4.6
2019-05-23T01:13:40.367Z,4.6
2019-05-23T01:14:31.253Z,4.6
2019-05-23T01:15:22.122Z,4.5
2019-05-23T01:16:13.028Z,4.4
2019-05-23T01:17:03.906Z,4.4
2019-05-23T01:17:54.786Z,4.4
2019-05-23T01:18:45.660Z,4.2
2019-05-23T01:19:36.534Z,4.2
2019-05-23T01:20:27.409Z,4.1
2019-05-23T01:21:18.309Z,4.1
2019-05-23T01:22:09.233Z,4.1
2019-05-23T01:23:00.135Z,4.1
2019-05-23T01:23:51.001Z,4.1
2019-05-23T01:24:41.877Z,4.1
2019-05-23T01:25:32.742Z,4.1
2019-05-23T01:26:23.668Z,4.1
2019-05-23T01:27:14.674Z,4
2019-05-23T01:28:05.547Z,3.9
2019-05-23T01:28:56.461Z,3.9
2019-05-23T01:29:49.459Z,3.9
2019-05-23T01:30:41.010Z,3.8
2019-05-23T01:31:31.909Z,3.8
2019-05-23T01:32:22.788Z,3.8
2019-05-23T01:33:13.659Z,3.9
2019-05-23T01:34:04.524Z,3.9
2019-05-23T01:34:55.407Z,4
2019-05-23T01:35:46.281Z,4
2019-05-23T01:36:37.213Z,4.1
2019-05-23T01:37:28.083Z,4.1
2019-05-23T01:38:18.965Z,4
2019-05-23T01:39:09.840Z,3.9
2019-05-23T01:40:00.718Z,3.8
2019-05-23T01:40:51.591Z,3.9
2019-05-23T01:41:42.498Z,3.9
2019-05-23T01:42:33.367Z,3.9
2019-05-23T01:43:24.240Z,3.9
2019-05-23T01:44:15.109Z,3.8
2019-05-23T01:45:05.985Z,3.8
2019-05-23T01:45:56.859Z,3.8
2019-05-23T01:46:47.754Z,3.8
2019-05-23T01:47:38.643Z,3.8
2019-05-23T01:48:29.538Z,3.9
2019-05-23T01:49:20.495Z,3.9
2019-05-23T01:50:11.390Z,3.9
2019-05-23T01:51:02.269Z,3.9
2019-05-23T01:51:53.165Z,4
2019-05-23T01:52:44.038Z,3.9
2019-05-23T01:53:34.914Z,3.9
2019-05-23T01:54:25.782Z,3.9
2019-05-23T01:55:16.664Z,3.8
2019-05-23T01:56:07.567Z,3.7
2019-05-23T01:56:58.437Z,3.7
2019-05-23T01:57:49.307Z,3.7
2019-05-23T01:58:40.183Z,3.7
2019-05-23T01:59:31.055Z,3.6
2019-05-23T02:00:21.928Z,3.6
2019-05-23T02:01:12.831Z,3.5
2019-05-23T02:02:03.707Z,3.5
2019-05-23T02:02:54.577Z,3.5
2019-05-23T02:03:45.450Z,3.6
2019-05-23T02:04:36.325Z,3.5
2019-05-23T02:05:27.204Z,3.6
2019-05-23T02:06:18.108Z,3.6
2019-05-23T02:07:08.974Z,3.6
2019-05-23T02:07:59.853Z,3.5
2019-05-23T02:08:50.723Z,3.5
2019-05-23T02:09:41.612Z,3.6
2019-05-23T02:10:32.492Z,3.6
2019-05-23T02:11:23.409Z,3.5
2019-05-23T02:12:14.319Z,3.5
2019-05-23T02:13:05.186Z,3.5
2019-05-23T02:13:56.048Z,3.6
2019-05-23T02:14:46.926Z,3.6
2019-05-23T02:15:37.797Z,3.7
2019-05-23T02:16:28.717Z,3.8
2019-05-23T02:17:19.637Z,3.9
2019-05-23T02:18:10.531Z,3.9
2019-05-23T02:19:01.401Z,3.9
2019-05-23T02:19:52.304Z,3.8
2019-05-23T02:20:43.189Z,3.7
2019-05-23T02:21:34.097Z,3.6
2019-05-23T02:22:24.968Z,3.6
2019-05-23T02:23:15.839Z,3.6
2019-05-23T02:24:06.707Z,3.6
2019-05-23T02:24:57.578Z,3.6
2019-05-23T02:25:48.450Z,3.5
2019-05-23T02:26:39.345Z,3.5
2019-05-23T02:27:30.218Z,3.6
2019-05-23T02:28:21.085Z,3.6
2019-05-23T02:29:11.956Z,3.6
2019-05-23T02:30:02.907Z,3.6
2019-05-23T02:30:53.813Z,3.6
2019-05-23T02:31:44.720Z,3.6
2019-05-23T02:32:35.600Z,3.6
2019-05-23T02:33:26.478Z,3.6
2019-05-23T02:34:17.469Z,3.6
2019-05-23T02:35:08.352Z,3.6
2019-05-23T02:35:59.237Z,3.6
2019-05-23T02:36:50.143Z,3.6
2019-05-23T02:37:41.026Z,3.5
2019-05-23T02:38:31.916Z,3.5
2019-05-23T02:39:22.786Z,3.4
2019-05-23T02:40:13.657Z,3.4
2019-05-23T02:41:04.540Z,3.4
2019-05-23T02:41:55.454Z,3.4
2019-05-23T02:42:46.330Z,3.4
2019-05-23T02:43:37.201Z,3.3
2019-05-23T02:44:28.078Z,3.4
2019-05-23T02:45:18.957Z,3.4
2019-05-23T02:46:09.832Z,3.3
2019-05-23T02:47:00.746Z,3.4
2019-05-23T02:47:51.630Z,3.3
2019-05-23T02:48:42.504Z,3.4
2019-05-23T02:49:33.379Z,3.4
2019-05-23T02:50:24.256Z,3.5
2019-05-23T02:51:15.128Z,3.5
2019-05-23T02:52:06.033Z,3.5
2019-05-23T02:52:56.904Z,3.6
2019-05-23T02:53:47.778Z,3.6
2019-05-23T02:54:38.662Z,3.7
2019-05-23T02:55:29.534Z,3.7
2019-05-23T02:56:20.508Z,3.7
2019-05-23T02:57:11.510Z,3.7
2019-05-23T02:58:02.382Z,3.7
2019-05-23T02:58:53.376Z,3.7
2019-05-23T02:59:44.249Z,3.7
2019-05-23T03:00:52.331Z,3.7
2019-05-23T03:01:35.937Z,3.6
2019-05-23T03:02:26.843Z,3.6
2019-05-23T03:03:17.709Z,3.6
2019-05-23T03:04:08.576Z,3.6
2019-05-23T03:04:59.455Z,3.5
2019-05-23T03:05:50.351Z,3.4
2019-05-23T03:06:41.305Z,3.4
2019-05-23T03:07:32.228Z,3.4
2019-05-23T03:08:23.119Z,3.4
2019-05-23T03:09:13.994Z,3.6
2019-05-23T03:10:04.871Z,3.5
2019-05-23T03:10:55.757Z,3.6
2019-05-23T03:11:46.628Z,3.6
2019-05-23T03:12:37.542Z,3.6
2019-05-23T03:13:28.432Z,3.7
2019-05-23T03:14:19.375Z,3.6
2019-05-23T03:15:10.244Z,3.6
2019-05-23T03:16:01.134Z,3.6
2019-05-23T03:16:52.014Z,3.6
2019-05-23T03:17:42.898Z,3.7
2019-05-23T03:18:34.669Z,3.7
2019-05-23T03:19:25.788Z,3.7
2019-05-23T03:20:16.662Z,3.7
2019-05-23T03:21:07.657Z,3.7
2019-05-23T03:21:58.527Z,3.7
2019-05-23T03:22:49.410Z,3.6
2019-05-23T03:23:40.412Z,3.6
2019-05-23T03:24:31.286Z,3.7
2019-05-23T03:25:22.154Z,3.6
2019-05-23T03:26:13.025Z,3.7
2019-05-23T03:27:03.892Z,3.7
2019-05-23T03:27:54.760Z,3.7
2019-05-23T03:28:45.661Z,3.7
2019-05-23T03:29:36.527Z,3.7
2019-05-23T03:30:27.398Z,3.7
2019-05-23T03:31:30.279Z,3.8
2019-05-23T03:32:14.087Z,3.7
2019-05-23T03:33:05.031Z,3.7
2019-05-23T03:33:55.903Z,3.7
2019-05-23T03:34:46.775Z,3.8
2019-05-23T03:35:37.653Z,3.8
2019-05-23T03:36:28.534Z,3.7
2019-05-23T03:37:19.405Z,3.8
2019-05-23T03:38:10.282Z,3.9
2019-05-23T03:39:01.180Z,3.8
2019-05-23T03:39:52.057Z,3.7
2019-05-23T03:40:42.922Z,3.7
2019-05-23T03:41:33.794Z,3.8
2019-05-23T03:42:24.690Z,3.9
2019-05-23T03:43:15.564Z,3.9
2019-05-23T03:44:06.461Z,3.9
2019-05-23T03:44:57.333Z,3.9
2019-05-23T03:45:48.217Z,3.9
2019-05-23T03:46:39.148Z,3.9
2019-05-23T03:47:30.030Z,3.9
2019-05-23T03:48:20.933Z,3.9
2019-05-23T03:49:11.800Z,3.9
2019-05-23T03:50:02.673Z,3.9
2019-05-23T03:50:53.545Z,3.9
2019-05-23T03:51:44.432Z,4
2019-05-23T03:52:35.302Z,4.1
2019-05-23T03:53:26.204Z,4.1
2019-05-23T03:54:17.079Z,4.1
2019-05-23T03:55:07.954Z,4.1
2019-05-23T03:55:58.827Z,4
2019-05-23T03:56:49.718Z,4
2019-05-23T03:57:40.591Z,4
2019-05-23T03:58:31.518Z,4.1
2019-05-23T03:59:22.396Z,4.1
2019-05-23T04:00:13.273Z,4.1
2019-05-23T04:01:04.149Z,4.1
2019-05-23T04:01:55.029Z,4.2
2019-05-23T04:02:45.907Z,4.2
2019-05-23T04:03:39.789Z,4.2
2019-05-23T04:04:30.962Z,4.4
2019-05-23T04:05:21.836Z,4.4
2019-05-23T04:06:12.722Z,4.4
2019-05-23T04:07:03.597Z,4.5
2019-05-23T04:07:54.469Z,4.7
2019-05-23T04:08:45.376Z,4.7
2019-05-23T04:09:36.246Z,4.9
2019-05-23T04:10:27.122Z,5
2019-05-23T04:11:18.001Z,5.1
2019-05-23T04:12:08.890Z,5.1
2019-05-23T04:12:59.761Z,5.1
2019-05-23T04:13:50.640Z,5.2
2019-05-23T04:14:41.545Z,5.2
2019-05-23T04:15:32.425Z,5.3
2019-05-23T04:16:23.305Z,5.3
2019-05-23T04:17:14.178Z,5.4
2019-05-23T04:18:05.051Z,5.4
2019-05-23T04:18:55.942Z,5.5
2019-05-23T04:19:46.848Z,5.5
2019-05-23T04:20:37.720Z,5.6
2019-05-23T04:21:28.605Z,5.6
2019-05-23T04:22:19.500Z,5.7
2019-05-23T04:23:10.490Z,5.7
2019-05-23T04:24:01.481Z,5.8
2019-05-23T04:24:52.389Z,5.8
2019-05-23T04:25:43.261Z,5.9
2019-05-23T04:26:34.130Z,5.9
2019-05-23T04:27:24.997Z,5.9
2019-05-23T04:28:15.870Z,6
2019-05-23T04:29:06.744Z,6.1
2019-05-23T04:29:57.642Z,6.1
2019-05-23T04:30:48.633Z,6.1
2019-05-23T04:31:39.507Z,6.2
2019-05-23T04:32:30.381Z,6.2
2019-05-23T04:33:21.265Z,6.2
2019-05-23T04:34:12.145Z,6.3
2019-05-23T04:35:03.037Z,6.3
2019-05-23T04:35:53.901Z,6.4
2019-05-23T04:36:44.775Z,6.4
2019-05-23T04:37:35.647Z,6.4
2019-05-23T04:38:26.521Z,6.5
2019-05-23T04:39:17.402Z,6.6
2019-05-23T04:40:08.300Z,6.6
2019-05-23T04:40:59.176Z,6.6
2019-05-23T04:41:50.044Z,6.6
2019-05-23T04:42:40.917Z,6.6
2019-05-23T04:43:31.800Z,6.6
2019-05-23T04:44:22.669Z,6.6
2019-05-23T04:45:13.577Z,6.6
2019-05-23T04:46:04.446Z,6.6
2019-05-23T04:46:55.328Z,6.6
2019-05-23T04:47:46.208Z,6.6
2019-05-23T04:48:37.078Z,6.6
2019-05-23T04:49:27.947Z,6.7
2019-05-23T04:50:18.847Z,6.7
2019-05-23T04:51:09.721Z,6.7
2019-05-23T04:52:00.595Z,6.8
2019-05-23T04:52:51.481Z,6.9
2019-05-23T04:53:42.350Z,6.9
2019-05-23T04:54:33.226Z,7
2019-05-23T04:55:24.120Z,7.1
2019-05-23T04:56:14.996Z,7.1
2019-05-23T04:57:05.876Z,7.2
2019-05-23T04:57:56.749Z,7.3
2019-05-23T04:58:47.622Z,7.6
2019-05-23T04:59:38.495Z,8.3
2019-05-23T05:00:29.404Z,9.2
2019-05-23T05:01:20.275Z,9.9
2019-05-23T05:02:25.295Z,10.5
2019-05-23T05:03:06.952Z,10.9
2019-05-23T05:03:57.825Z,11.1
2019-05-23T05:04:48.705Z,11.1
2019-05-23T05:05:39.709Z,11.1
2019-05-23T05:06:30.592Z,11.1
2019-05-23T05:07:21.484Z,11.1
2019-05-23T05:08:12.554Z,11.1
2019-05-23T05:09:03.472Z,11.1
2019-05-23T05:09:54.341Z,11.1
2019-05-23T05:10:45.244Z,11.1
2019-05-23T05:11:36.111Z,11.1
2019-05-23T05:12:26.986Z,11.1
2019-05-23T05:13:17.858Z,11.1
2019-05-23T05:14:08.740Z,11.1
2019-05-23T05:14:59.605Z,11.1
2019-05-23T05:15:50.638Z,11.1
2019-05-23T05:16:41.552Z,11.2
2019-05-23T05:17:32.433Z,11.2
2019-05-23T05:18:23.299Z,11.2
2019-05-23T05:19:14.170Z,11.2
2019-05-23T05:20:05.042Z,11.2
2019-05-23T05:20:55.937Z,11.2
2019-05-23T05:21:46.803Z,11.2
2019-05-23T05:22:37.672Z,11.2
2019-05-23T05:23:28.545Z,11.2
2019-05-23T05:24:19.417Z,11.2
2019-05-23T05:25:10.299Z,11.2
2019-05-23T05:26:01.198Z,11.2
2019-05-23T05:26:52.082Z,11.2
2019-05-23T05:27:42.956Z,11.2
2019-05-23T05:28:33.825Z,11.3
2019-05-23T05:29:24.701Z,11.3
2019-05-23T05:30:15.569Z,11.2
2019-05-23T05:31:06.462Z,11.3
2019-05-23T05:31:57.334Z,11.3
2019-05-23T05:32:48.208Z,11.3
2019-05-23T05:33:39.082Z,11.3
2019-05-23T05:34:29.954Z,11.3
2019-05-23T05:35:20.841Z,11.3
2019-05-23T05:36:11.748Z,11.3
2019-05-23T05:37:02.632Z,11.3
2019-05-23T05:37:53.561Z,11.3
2019-05-23T05:38:44.638Z,11.3
2019-05-23T05:39:35.521Z,11.3
2019-05-23T05:40:26.412Z,11.3
2019-05-23T05:41:17.327Z,11.3
2019-05-23T05:42:08.196Z,11.3
2019-05-23T05:42:59.070Z,11.3
2019-05-23T05:43:49.937Z,11.3
2019-05-23T05:44:40.834Z,11.3
2019-05-23T05:45:31.841Z,11.3
2019-05-23T05:46:22.716Z,11.3
2019-05-23T05:47:13.623Z,11.3
2019-05-23T05:48:04.503Z,11.3
2019-05-23T05:48:55.385Z,11.4
2019-05-23T05:49:46.269Z,11.4
2019-05-23T05:50:37.143Z,11.4
2019-05-23T05:51:28.073Z,11.4
2019-05-23T05:52:18.977Z,11.4
2019-05-23T05:53:09.864Z,11.4
2019-05-23T05:54:00.733Z,11.4
2019-05-23T05:54:51.605Z,11.4
2019-05-23T05:55:42.496Z,11.4
2019-05-23T05:56:33.374Z,11.4
2019-05-23T05:57:24.373Z,11.4
2019-05-23T05:58:15.296Z,11.4
2019-05-23T05:59:06.180Z,11.4
2019-05-23T05:59:57.052Z,11.4
2019-05-23T06:00:47.927Z,11.4
2019-05-23T06:01:38.918Z,11.4
2019-05-23T06:02:29.953Z,11.4
2019-05-23T06:03:20.863Z,11.4
2019-05-23T06:04:11.761Z,11.4
2019-05-23T06:05:02.648Z,11.4
2019-05-23T06:05:53.619Z,11.5
2019-05-23T06:06:44.549Z,11.5
2019-05-23T06:07:35.503Z,11.5
2019-05-23T06:08:26.397Z,11.5
2019-05-23T06:09:17.274Z,11.5
2019-05-23T06:10:08.208Z,11.5
2019-05-23T06:10:59.077Z,11.5
2019-05-23T06:11:50.054Z,11.5
2019-05-23T06:12:40.957Z,11.6
2019-05-23T06:13:32.964Z,11.6
2019-05-23T06:14:23.858Z,11.6
2019-05-23T06:15:14.741Z,11.6
2019-05-23T06:16:05.648Z,11.6
2019-05-23T06:16:56.591Z,11.6
2019-05-23T06:17:47.505Z,11.6
2019-05-23T06:18:38.369Z,11.6
2019-05-23T06:19:29.253Z,11.6
2019-05-23T06:20:20.125Z,11.6
2019-05-23T06:21:11.092Z,11.6
2019-05-23T06:22:02.108Z,11.6
2019-05-23T06:22:53.140Z,11.6
2019-05-23T06:23:44.042Z,11.6
2019-05-23T06:24:43.802Z,11.6
2019-05-23T06:25:30.822Z,11.6
2019-05-23T06:26:22.795Z,11.6
2019-05-23T06:27:13.676Z,11.7
2019-05-23T06:28:04.576Z,11.7
2019-05-23T06:28:55.511Z,11.7
2019-05-23T06:29:46.388Z,11.7
2019-05-23T06:30:37.269Z,11.7
2019-05-23T06:31:28.138Z,11.7
2019-05-23T06:32:19.053Z,11.8
2019-05-23T06:33:22.309Z,11.8
2019-05-23T06:34:05.732Z,11.8
2019-05-23T06:34:56.597Z,11.8
2019-05-23T06:35:47.474Z,11.8
2019-05-23T06:36:38.493Z,11.8
2019-05-23T06:37:33.932Z,11.8
2019-05-23T06:38:25.190Z,11.8
2019-05-23T06:39:21.078Z,11.8
2019-05-23T06:40:11.970Z,11.8
2019-05-23T06:41:02.865Z,11.8
2019-05-23T06:41:53.733Z,11.8
2019-05-23T06:42:44.638Z,11.8
2019-05-23T06:43:35.506Z,11.8
2019-05-23T06:44:26.412Z,11.9
2019-05-23T06:45:17.411Z,11.9
2019-05-23T06:46:08.279Z,11.9
2019-05-23T06:46:59.146Z,11.9
2019-05-23T06:47:50.046Z,11.9
2019-05-23T06:48:45.523Z,11.9
2019-05-23T06:49:36.608Z,11.9
2019-05-23T06:50:27.480Z,11.9
2019-05-23T06:51:18.354Z,11.9
2019-05-23T06:52:09.224Z,11.9
2019-05-23T06:53:00.130Z,11.9
2019-05-23T06:53:51.044Z,11.9
2019-05-23T06:54:41.989Z,11.9
2019-05-23T06:55:32.898Z,11.9
2019-05-23T06:56:23.768Z,11.9
2019-05-23T06:57:14.638Z,12
2019-05-23T06:58:05.541Z,12
2019-05-23T06:58:56.411Z,12
2019-05-23T06:59:47.296Z,12
2019-05-23T07:00:38.184Z,12
2019-05-23T07:01:29.054Z,12
2019-05-23T07:02:19.929Z,12.1
2019-05-23T07:03:10.842Z,12.1
2019-05-23T07:04:01.713Z,12.1
2019-05-23T07:04:52.595Z,12.1
2019-05-23T07:05:43.475Z,12.1
2019-05-23T07:06:34.343Z,12.1
2019-05-23T07:07:25.213Z,12.1
2019-05-23T07:08:16.085Z,12.1
2019-05-23T07:09:06.981Z,12.1
2019-05-23T07:09:57.855Z,12.1
2019-05-23T07:10:48.732Z,12.1
2019-05-23T07:11:39.604Z,12.1
2019-05-23T07:12:30.479Z,12.1
2019-05-23T07:13:21.397Z,12.2
2019-05-23T07:14:12.265Z,12.2
2019-05-23T07:15:03.166Z,12.2
2019-05-23T07:15:54.030Z,12.2
2019-05-23T07:16:44.911Z,12.2
2019-05-23T07:17:35.787Z,12.2
2019-05-23T07:18:26.666Z,12.2
2019-05-23T07:19:17.558Z,12.2
2019-05-23T07:20:08.427Z,12.2
2019-05-23T07:20:59.307Z,12.2
2019-05-23T07:21:50.199Z,12.2
2019-05-23T07:22:41.071Z,12.2
2019-05-23T07:23:31.950Z,12.3
2019-05-23T07:24:22.850Z,12.3
2019-05-23T07:25:13.714Z,12.3
2019-05-23T07:26:04.599Z,12.3
2019-05-23T07:26:55.464Z,12.3
2019-05-23T07:27:46.334Z,12.3
2019-05-23T07:28:37.207Z,12.4
2019-05-23T07:29:28.106Z,12.4
2019-05-23T07:30:19.084Z,12.4
2019-05-23T07:31:09.955Z,12.4
2019-05-23T07:32:00.828Z,12.4
2019-05-23T07:32:51.704Z,12.4
2019-05-23T07:34:00.205Z,12.4
2019-05-23T07:34:38.422Z,12.4
2019-05-23T07:35:29.306Z,12.4
2019-05-23T07:36:20.180Z,12.4
2019-05-23T07:37:11.056Z,12.4
2019-05-23T07:38:01.968Z,12.4
2019-05-23T07:38:52.988Z,12.5
2019-05-23T07:39:43.896Z,12.5
2019-05-23T07:40:34.770Z,12.5
2019-05-23T07:41:25.654Z,12.5
2019-05-23T07:42:16.527Z,12.5
2019-05-23T07:43:07.452Z,12.5
2019-05-23T07:43:58.399Z,12.6
2019-05-23T07:44:49.289Z,12.6
2019-05-23T07:45:40.164Z,12.6
2019-05-23T07:46:31.031Z,12.6
2019-05-23T07:47:21.898Z,12.6
2019-05-23T07:48:12.768Z,12.6
2019-05-23T07:49:03.666Z,12.6
2019-05-23T07:49:54.579Z,12.6
2019-05-23T07:50:45.446Z,12.6
2019-05-23T07:51:36.319Z,12.6
2019-05-23T07:52:27.259Z,12.6
2019-05-23T07:53:18.269Z,12.6
2019-05-23T07:54:09.149Z,12.7
2019-05-23T07:55:00.053Z,12.7
2019-05-23T07:55:50.928Z,12.7
2019-05-23T07:56:41.797Z,12.7
2019-05-23T07:57:32.662Z,12.7
2019-05-23T07:58:23.535Z,12.7
2019-05-23T07:59:14.409Z,12.8
2019-05-23T08:00:05.306Z,12.8
2019-05-23T08:00:56.175Z,12.8
2019-05-23T08:01:47.057Z,12.8
2019-05-23T08:02:37.932Z,12.8
2019-05-23T08:03:28.804Z,12.8
2019-05-23T08:04:22.172Z,12.8
2019-05-23T08:05:13.448Z,12.8
2019-05-23T08:06:04.571Z,12.8
2019-05-23T08:06:55.458Z,12.8
2019-05-23T08:07:46.508Z,12.8
2019-05-23T08:08:37.403Z,12.9
2019-05-23T08:09:28.284Z,12.9
2019-05-23T08:10:32.946Z,12.9
2019-05-23T08:11:14.999Z,12.9
2019-05-23T08:12:05.872Z,12.9
2019-05-23T08:12:56.753Z,12.9
2019-05-23T08:13:47.633Z,12.9
2019-05-23T08:14:38.500Z,12.9
2019-05-23T08:15:29.415Z,12.9
2019-05-23T08:16:20.290Z,12.9
2019-05-23T08:17:11.193Z,13
2019-05-23T08:18:02.102Z,13
2019-05-23T08:18:52.977Z,13
2019-05-23T08:19:49.449Z,13
2019-05-23T08:20:39.686Z,13
2019-05-23T08:21:30.559Z,13
2019-05-23T08:22:21.425Z,13.1
2019-05-23T08:23:12.297Z,13.1
2019-05-23T08:24:03.167Z,13.1
2019-05-23T08:24:54.070Z,13.1
2019-05-23T08:25:44.986Z,13.1
2019-05-23T08:26:35.867Z,13.1
2019-05-23T08:27:27.034Z,13.1
2019-05-23T08:28:17.909Z,13.1
2019-05-23T08:29:26.277Z,13.1
2019-05-23T08:30:04.588Z,13.1
2019-05-23T08:30:55.495Z,13.1
2019-05-23T08:31:46.372Z,13.1
2019-05-23T08:32:37.271Z,13.2
2019-05-23T08:33:28.146Z,13.2
2019-05-23T08:34:19.019Z,13.2
2019-05-23T08:35:09.887Z,13.2
2019-05-23T08:36:00.784Z,13.2
2019-05-23T08:36:51.658Z,13.2
2019-05-23T08:37:42.556Z,13.3
2019-05-23T08:38:33.422Z,13.3
2019-05-23T08:39:24.303Z,13.3
2019-05-23T08:40:15.173Z,13.3
2019-05-23T08:41:06.081Z,13.3
2019-05-23T08:41:56.993Z,13.3
2019-05-23T08:42:47.881Z,13.3
2019-05-23T08:43:38.778Z,13.3
2019-05-23T08:44:29.660Z,13.3
2019-05-23T08:45:20.529Z,13.3
2019-05-23T08:46:11.427Z,13.3
2019-05-23T08:47:02.301Z,13.4
2019-05-23T08:47:53.176Z,13.4
2019-05-23T08:48:44.046Z,13.4
2019-05-23T08:49:34.924Z,13.4
2019-05-23T08:50:25.793Z,13.4
2019-05-23T08:51:16.674Z,13.4
2019-05-23T08:52:07.576Z,13.4
2019-05-23T08:52:58.508Z,13.4
2019-05-23T08:53:49.373Z,13.4
2019-05-23T08:54:40.247Z,13.4
2019-05-23T08:55:31.150Z,13.4
2019-05-23T08:56:22.030Z,13.4
2019-05-23T08:57:12.962Z,13.5
2019-05-23T08:58:03.899Z,13.5
2019-05-23T08:58:54.817Z,13.5
2019-05-23T08:59:45.737Z,13.5
2019-05-23T09:00:36.728Z,13.5
2019-05-23T09:01:27.600Z,13.5
2019-05-23T09:02:18.529Z,13.5
2019-05-23T09:03:09.411Z,13.5
2019-05-23T09:04:00.292Z,13.6
2019-05-23T09:05:04.079Z,13.6
2019-05-23T09:05:46.981Z,13.6
2019-05-23T09:06:37.922Z,13.6
2019-05-23T09:07:28.827Z,13.6
2019-05-23T09:08:19.702Z,13.6
2019-05-23T09:09:28.153Z,13.6
2019-05-23T09:10:06.458Z,13.6
2019-05-23T09:10:57.464Z,13.6
2019-05-23T09:11:48.383Z,13.6
2019-05-23T09:12:39.262Z,13.6
2019-05-23T09:13:30.142Z,13.6
2019-05-23T09:14:21.018Z,13.6
2019-05-23T09:15:11.898Z,13.6
2019-05-23T09:16:02.770Z,13.6
2019-05-23T09:16:53.679Z,13.6
2019-05-23T09:17:52.710Z,13.7
2019-05-23T09:18:40.375Z,13.7
2019-05-23T09:19:31.257Z,13.7
2019-05-23T09:20:22.141Z,13.7
2019-05-23T09:21:13.046Z,13.7
2019-05-23T09:22:04.975Z,13.7
2019-05-23T09:22:55.867Z,13.7
2019-05-23T09:23:46.735Z,13.7
2019-05-23T09:24:37.610Z,13.7
2019-05-23T09:25:28.494Z,13.8
2019-05-23T09:26:19.365Z,13.8
2019-05-23T09:27:10.360Z,13.8
2019-05-23T09:28:01.339Z,13.8
2019-05-23T09:28:52.213Z,13.8
2019-05-23T09:29:43.088Z,13.8
2019-05-23T09:30:33.961Z,13.8
2019-05-23T09:31:24.839Z,13.8
2019-05-23T09:32:15.752Z,13.9
2019-05-23T09:33:06.624Z,13.9
2019-05-23T09:33:57.501Z,13.9
2019-05-23T09:34:48.364Z,13.9
2019-05-23T09:35:39.229Z,13.9
2019-05-23T09:36:30.106Z,13.9
2019-05-23T09:37:21.016Z,13.9
2019-05-23T09:38:11.906Z,13.9
2019-05-23T09:39:02.783Z,13.9
2019-05-23T09:39:53.660Z,13.9
2019-05-23T09:40:44.531Z,13.9
2019-05-23T09:41:35.403Z,13.9
2019-05-23T09:42:26.302Z,13.9
2019-05-23T09:43:17.172Z,13.9
2019-05-23T09:44:08.036Z,14
2019-05-23T09:44:58.915Z,14
2019-05-23T09:45:49.784Z,14
2019-05-23T09:46:40.665Z,14
2019-05-23T09:47:31.569Z,14
2019-05-23T09:48:22.434Z,14.1
2019-05-23T09:49:13.313Z,14.1
2019-05-23T09:50:04.182Z,14.1
2019-05-23T09:50:55.054Z,14.1
2019-05-23T09:51:47.246Z,14.1
2019-05-23T09:52:38.592Z,14.1
2019-05-23T09:53:29.461Z,14.1
2019-05-23T09:54:20.339Z,14.1
2019-05-23T09:55:11.209Z,14.1
2019-05-23T09:56:02.245Z,14.1
2019-05-23T09:56:53.237Z,14.1
2019-05-23T09:57:44.142Z,14.2
2019-05-23T09:58:35.008Z,14.2
2019-05-23T09:59:25.889Z,14.2
2019-05-23T10:00:16.762Z,14.2
2019-05-23T10:01:07.637Z,14.2
2019-05-23T10:01:58.505Z,14.2
2019-05-23T10:02:49.406Z,14.3
2019-05-23T10:03:40.320Z,14.3
2019-05-23T10:04:31.207Z,14.3
2019-05-23T10:05:40.602Z,14.3
2019-05-23T10:06:17.886Z,14.3
2019-05-23T10:07:08.863Z,14.3
2019-05-23T10:07:59.769Z,14.3
2019-05-23T10:08:50.642Z,14.3
2019-05-23T10:09:41.514Z,14.3
2019-05-23T10:10:32.384Z,14.4
2019-05-23T10:11:23.257Z,14.4
2019-05-23T10:12:14.127Z,14.4
2019-05-23T10:13:05.033Z,14.4
2019-05-23T10:13:55.913Z,14.4
2019-05-23T10:14:46.783Z,14.4
2019-05-23T10:15:37.649Z,14.4
2019-05-23T10:16:28.528Z,14.4
2019-05-23T10:17:24.432Z,14.4
2019-05-23T10:18:15.654Z,14.4
2019-05-23T10:19:06.526Z,14.5
2019-05-23T10:19:57.394Z,14.5
2019-05-23T10:20:48.262Z,14.5
2019-05-23T10:21:39.133Z,14.5
2019-05-23T10:22:30.003Z,14.5
2019-05-23T10:23:20.900Z,14.5
2019-05-23T10:24:11.896Z,14.6
2019-05-23T10:25:02.782Z,14.6
2019-05-23T10:25:53.662Z,14.6
2019-05-23T10:26:44.535Z,14.6
2019-05-23T10:27:35.418Z,14.6
2019-05-23T10:28:26.344Z,14.6
2019-05-23T10:29:17.361Z,14.6
2019-05-23T10:30:08.344Z,14.6
2019-05-23T10:30:59.215Z,14.6
2019-05-23T10:31:50.093Z,14.6
2019-05-23T10:32:40.961Z,14.6
2019-05-23T10:33:31.880Z,14.6
2019-05-23T10:34:22.758Z,14.7
2019-05-23T10:35:13.634Z,14.7
2019-05-23T10:36:04.500Z,14.7
2019-05-23T10:36:55.373Z,14.7
2019-05-23T10:37:46.242Z,14.7
2019-05-23T10:38:37.147Z,14.7
2019-05-23T10:39:28.031Z,14.7
2019-05-23T10:40:18.931Z,14.7
2019-05-23T10:41:09.827Z,14.7
2019-05-23T10:42:00.705Z,14.7
2019-05-23T10:42:51.573Z,14.7
2019-05-23T10:43:42.479Z,14.7
2019-05-23T10:44:33.356Z,14.7
2019-05-23T10:45:24.226Z,14.7
2019-05-23T10:46:15.095Z,14.8
2019-05-23T10:47:05.988Z,14.8
2019-05-23T10:47:56.891Z,14.8
2019-05-23T10:48:47.795Z,14.8
2019-05-23T10:49:38.663Z,14.8
2019-05-23T10:50:43.992Z,14.8
2019-05-23T10:51:28.715Z,14.8
2019-05-23T10:52:19.591Z,14.9
2019-05-23T10:53:10.502Z,14.9
2019-05-23T10:54:01.410Z,14.9
2019-05-23T10:54:52.288Z,14.9
2019-05-23T10:55:43.166Z,14.9
2019-05-23T10:56:34.051Z,14.9
2019-05-23T10:57:24.920Z,14.9
2019-05-23T10:58:15.795Z,14.9
2019-05-23T10:59:06.700Z,14.9
2019-05-23T10:59:57.579Z,14.9
2019-05-23T11:00:48.456Z,14.9
2019-05-23T11:01:39.338Z,14.9
2019-05-23T11:02:30.228Z,14.9
2019-05-23T11:03:21.108Z,14.9
2019-05-23T11:04:12.004Z,14.9
2019-05-23T11:05:11.969Z,14.9
2019-05-23T11:05:58.702Z,14.9
2019-05-23T11:06:49.569Z,14.9
2019-05-23T11:07:40.519Z,15
2019-05-23T11:08:31.422Z,15
2019-05-23T11:09:36.492Z,15
2019-05-23T11:10:18.490Z,15
2019-05-23T11:11:13.835Z,15
2019-05-23T11:12:05.216Z,15
2019-05-23T11:12:56.124Z,15
2019-05-23T11:13:47.007Z,15
2019-05-23T11:14:37.978Z,15
2019-05-23T11:15:28.892Z,15.1
2019-05-23T11:16:19.770Z,15.1
2019-05-23T11:17:10.647Z,15.1
2019-05-23T11:18:01.523Z,15.1
2019-05-23T11:18:52.402Z,15.1
2019-05-23T11:19:43.365Z,15.1
2019-05-23T11:20:36.075Z,15.1
2019-05-23T11:21:27.129Z,15.1
2019-05-23T11:22:18.004Z,15.1
2019-05-23T11:23:08.895Z,15.1
2019-05-23T11:23:59.773Z,15.1
2019-05-23T11:24:50.686Z,15.1
2019-05-23T11:25:41.560Z,15.1
2019-05-23T11:26:32.436Z,15.1
2019-05-23T11:27:23.393Z,15.1
2019-05-23T11:28:14.306Z,15.1
2019-05-23T11:29:05.204Z,15.1
2019-05-23T11:29:56.083Z,15.1
2019-05-23T11:30:46.959Z,15.1
2019-05-23T11:31:37.841Z,15.1
2019-05-23T11:32:28.722Z,15.1